Brownsboro, TX

2:32 PM CDT on August 30, 2015 (GMT -0500)
Echo Lake | | Change Station
CLOSE
Current Station
Personal Weather Station
Location: Murchison, TX
Elevation: 440 ft
Nearby Weather Stations

Elev 440 ft 32.26 °N, 95.65 °W | Updated 7 seconds ago

Clear
Clear
93.0 °F
Feels Like 96 °F
N
0.0
Wind Variable Wind from South
Gusts 0.0 mph

Today
High -- | Low -- °F
--% Chance of Precip.
Yesterday
High -- | Low -- °F
Precip. -- in
6:56 AM 7:49 PM
Full, 98% visible
Pressure 29.99 in
Visibility 10.0 miles
Clouds Clear
Heat Index 96 °F
Dew Point 66 °F
Humidity 41%
Rainfall 0.00 in
Snow Depth Not available.
UV 11 out of 12
Pollen 8.70 out of 12
Air Quality Not available.
Flu Activity Not available.
METAR KTYR 301853Z 22011KT 10SM CLR 32/19 A3001 RMK AO2 SLP155 T03220194
Pressure 29.99 in
Visibility 10.0 miles
Clouds Clear
Heat Index 96 °F
Dew Point 66 °F
Humidity 41%
Rainfall 0.00 in
Snow Depth Not available.
UV 11 out of 12
Pollen 8.70 out of 12
Air Quality Not available.
Flu Activity Not available.
METAR KTYR 301853Z 22011KT 10SM CLR 32/19 A3001 RMK AO2 SLP155 T03220194
Nowcast | as of 12:52 PM CDT on August 30, 2015

Light rain showers will continue across portions of central Texas this afternoon. Rainfall amounts will be light...generally only a few hundredths of an inch at most. Later this afternoon...showers and thunderstorms may develop. The activity will primarily impact areas south of the I-20 corridor. Those engaged in outdoor activities should keep abreast of the weather. Move indoors immediately if lightning is seen or thunder is heard.

×

10-Day Weather Forecast

×

Almanac

Astronomy

Aug. 30, 2015 Rise Set
Actual Time
Civil Twilight
Nautical Twilight
Astronomical Twilight
Moon
Length of Visible Light
Length of Day
Tomorrow will be .
, % of the Moon is Illuminated

Today's Extremes

State Highs State Lows

Community

WunderPhotos

Upload Photos

1,851,040 photos uploaded!

WunderBlogs® & News

Nearby

Air Quality

  Air Quality AQ Index Pollutant
Not available.

Snow Depth

Station Depth Elevation

Earthquake Activity

City Distance Mag. Time & Date
Minimum magnitude displayed is 2.5.

Coastal Water Temperatures

Place Temperature

Stations

Nearby Weather Stations

Station Location Temp. Windchill Dew Point Humidity Wind Precip. Elev Updated Type